Time;durP1;ratioP1;P1;durP2;ratioP2;P2;SDS_P1;SDS_P2;PMS_P1;PMS_P2;Temp;Humidity;BMP_temperature;BMP_pressure;BME280_temperature;BME280_humidity;BME280_pressure;Samples;Min_cycle;Max_cycle;Signal;HPM_P1;HPM_P2
2023/06/25 00:00:26;;;;;;;6.78;5.85;;;;;21.40;99002.00;;;;5074690;28;20040;-64
2023/06/25 00:02:53;;;;;;;7.60;5.57;;;;;21.20;99011.00;;;;5075209;28;20052;-64
2023/06/25 00:05:20;;;;;;;7.13;5.88;;;;;21.00;99012.00;;;;5075117;28;20050;-64
2023/06/25 00:07:47;;;;;;;6.72;5.65;;;;;21.00;99007.00;;;;5074843;28;20128;-64
2023/06/25 00:10:13;;;;;;;6.85;5.93;;;;;20.90;99007.00;;;;5074727;28;20083;-65
2023/06/25 00:12:40;;;;;;;7.70;5.10;;;;;20.70;99004.00;;;;5074858;28;20123;-64
2023/06/25 00:15:10;;;;;;;6.10;5.50;;;;;20.80;98999.00;;;;5075277;28;20075;-65
2023/06/25 00:17:38;;;;;;;6.55;5.82;;;;;20.80;99006.00;;;;5073504;28;20185;-65
2023/06/25 00:20:06;;;;;;;5.53;4.97;;;;;20.90;99008.00;;;;5073375;28;20045;-65
2023/06/25 00:22:32;;;;;;;7.03;5.47;;;;;20.90;98998.00;;;;5073312;28;20140;-64
2023/06/25 00:24:59;;;;;;;7.55;5.35;;;;;20.80;98996.00;;;;5056868;28;20148;-65
2023/06/25 00:27:26;;;;;;;6.85;5.53;;;;;20.80;98997.00;;;;5073680;28;20054;-65
2023/06/25 00:29:52;;;;;;;6.38;5.40;;;;;20.80;98994.00;;;;5074509;28;20131;-65
2023/06/25 00:32:19;;;;;;;5.93;5.40;;;;;20.70;98982.00;;;;5074895;28;20048;-65
2023/06/25 00:34:46;;;;;;;6.22;5.63;;;;;20.70;98982.00;;;;5074309;28;20094;-65
2023/06/25 00:37:18;;;;;;;6.50;5.80;;;;;20.60;98990.00;;;;5073063;28;20072;-68
2023/06/25 00:39:47;;;;;;;7.00;6.22;;;;;20.60;98989.00;;;;5073027;28;20501;-64
2023/06/25 00:42:15;;;;;;;6.95;5.50;;;;;20.60;98983.00;;;;5073259;28;20076;-64
2023/06/25 00:44:42;;;;;;;6.18;5.57;;;;;20.60;98992.00;;;;5074203;28;20068;-65
2023/06/25 00:47:12;;;;;;;6.18;5.40;;;;;20.60;98979.00;;;;5074448;28;20071;-64
2023/06/25 00:49:44;;;;;;;6.40;5.47;;;;;20.60;98980.00;;;;5056115;28;20060;-65
2023/06/25 00:52:13;;;;;;;6.97;5.50;;;;;20.60;98991.00;;;;5072978;28;20459;-64
2023/06/25 00:54:44;;;;;;;6.95;5.95;;;;;20.50;98979.00;;;;5072592;28;20044;-64
2023/06/25 00:57:11;;;;;;;7.82;6.32;;;;;20.60;98987.00;;;;5072902;28;20040;-63
2023/06/25 00:59:40;;;;;;;8.38;6.50;;;;;20.40;98983.00;;;;5072605;28;20051;-63
2023/06/25 01:02:16;;;;;;;6.72;5.97;;;;;20.20;98980.00;;;;5073964;28;20115;-64
2023/06/25 01:04:57;;;;;;;8.23;6.25;;;;;20.00;98979.00;;;;5072608;28;20044;-65
2023/06/25 01:07:25;;;;;;;7.03;6.30;;;;;20.00;98977.00;;;;5072779;28;20051;-66
2023/06/25 01:09:55;;;;;;;8.70;6.55;;;;;20.00;98978.00;;;;5074240;28;20070;-64
2023/06/25 01:12:21;;;;;;;9.63;7.28;;;;;19.90;98976.00;;;;5073065;28;20067;-65
2023/06/25 01:14:49;;;;;;;7.18;6.47;;;;;19.70;98959.00;;;;5072703;28;20051;-64
2023/06/25 01:17:16;;;;;;;8.00;6.47;;;;;19.70;98957.00;;;;5073875;28;20044;-65
2023/06/25 01:19:43;;;;;;;7.75;6.80;;;;;19.60;98954.00;;;;5073329;28;20456;-65
2023/06/25 01:22:11;;;;;;;9.70;7.07;;;;;19.70;98961.00;;;;5072468;28;20048;-64
2023/06/25 01:24:39;;;;;;;10.20;7.05;;;;;19.60;98951.00;;;;5072612;28;20132;-64
2023/06/25 01:27:05;;;;;;;7.40;6.68;;;;;19.50;98949.00;;;;5073523;28;20438;-64
2023/06/25 01:29:35;;;;;;;7.95;6.55;;;;;19.40;98954.00;;;;5073400;28;20044;-65
2023/06/25 01:32:01;;;;;;;7.78;6.80;;;;;19.40;98938.00;;;;5072097;28;20045;-64
2023/06/25 01:34:29;;;;;;;7.07;6.38;;;;;19.30;98950.00;;;;5073864;28;20053;-63
2023/06/25 01:36:55;;;;;;;7.10;6.38;;;;;19.30;98955.00;;;;5056268;28;20090;-65
2023/06/25 01:39:23;;;;;;;8.27;6.07;;;;;19.40;98951.00;;;;5074343;28;20036;-65
2023/06/25 01:41:50;;;;;;;7.82;6.72;;;;;19.40;98948.00;;;;5072529;28;20048;-65
2023/06/25 01:44:26;;;;;;;7.07;6.32;;;;;19.40;98954.00;;;;5074931;28;20646;-67
2023/06/25 01:46:54;;;;;;;9.70;7.22;;;;;19.40;98953.00;;;;5073551;28;20066;-64
2023/06/25 01:49:22;;;;;;;7.85;6.75;;;;;19.40;98949.00;;;;5073528;28;20079;-64
2023/06/25 01:51:59;;;;;;;11.68;6.72;;;;;19.40;98944.00;;;;5073342;28;20098;-67
2023/06/25 01:54:26;;;;;;;7.45;6.72;;;;;19.40;98946.00;;;;5071980;28;20098;-64
2023/06/25 01:56:53;;;;;;;8.35;6.70;;;;;19.40;98942.00;;;;5073300;28;20131;-65
2023/06/25 01:59:19;;;;;;;8.05;7.22;;;;;19.30;98948.00;;;;5071592;28;20465;-64
2023/06/25 02:01:46;;;;;;;9.18;6.72;;;;;19.20;98948.00;;;;5071308;28;20048;-64
2023/06/25 02:04:13;;;;;;;7.18;6.45;;;;;19.10;98943.00;;;;5072552;28;20044;-65
2023/06/25 02:06:39;;;;;;;7.72;6.97;;;;;19.10;98936.00;;;;5072335;28;20064;-64
2023/06/25 02:09:07;;;;;;;7.45;6.50;;;;;19.10;98932.00;;;;5070764;28;20048;-65
2023/06/25 02:11:35;;;;;;;9.05;7.40;;;;;19.10;98936.00;;;;5071745;28;20044;-65
2023/06/25 02:14:04;;;;;;;8.48;6.85;;;;;19.10;98935.00;;;;5071272;28;20048;-65
2023/06/25 02:16:31;;;;;;;7.78;6.85;;;;;19.00;98939.00;;;;5071499;28;20485;-65
2023/06/25 02:18:58;;;;;;;8.75;7.13;;;;;19.10;98937.00;;;;5072850;28;20486;-65
2023/06/25 02:21:25;;;;;;;7.35;6.60;;;;;19.10;98935.00;;;;5071719;28;20071;-65
2023/06/25 02:23:51;;;;;;;8.10;7.15;;;;;19.00;98929.00;;;;5073616;28;20440;-65
2023/06/25 02:26:18;;;;;;;8.10;7.28;;;;;18.90;98931.00;;;;5073597;28;20116;-64
2023/06/25 02:28:44;;;;;;;9.80;7.15;;;;;18.70;98937.00;;;;5072173;28;20116;-64
2023/06/25 02:31:11;;;;;;;9.05;7.45;;;;;18.60;98929.00;;;;5072835;28;20405;-65
2023/06/25 02:33:38;;;;;;;7.72;6.97;;;;;18.60;98931.00;;;;5073123;28;20112;-64
2023/06/25 02:36:05;;;;;;;7.80;7.00;;;;;18.50;98918.00;;;;5074638;28;20072;-64
2023/06/25 02:38:32;;;;;;;9.43;7.03;;;;;18.40;98920.00;;;;5073323;28;20061;-68
2023/06/25 02:40:59;;;;;;;9.10;7.05;;;;;18.40;98923.00;;;;5071815;28;20464;-65
2023/06/25 02:43:25;;;;;;;7.65;6.80;;;;;18.50;98927.00;;;;5073683;28;20064;-67
2023/06/25 02:45:52;;;;;;;7.20;6.60;;;;;18.50;98914.00;;;;5073770;28;20189;-65
2023/06/25 02:48:21;;;;;;;7.75;6.95;;;;;18.40;98915.00;;;;5071909;28;20056;-63
2023/06/25 02:50:48;;;;;;;7.38;6.63;;;;;18.40;98912.00;;;;5071662;28;20524;-65
2023/06/25 02:53:15;;;;;;;8.20;6.95;;;;;18.40;98917.00;;;;5071744;28;20064;-66
2023/06/25 02:55:41;;;;;;;7.40;6.65;;;;;18.40;98915.00;;;;5071517;28;20521;-66
2023/06/25 02:58:08;;;;;;;7.22;6.53;;;;;18.40;98918.00;;;;5070928;28;20041;-66
2023/06/25 03:00:36;;;;;;;7.72;6.93;;;;;18.40;98915.00;;;;5070605;28;20047;-65
2023/06/25 03:03:02;;;;;;;7.53;6.55;;;;;18.40;98919.00;;;;5072821;28;20036;-65
2023/06/25 03:05:30;;;;;;;7.60;6.40;;;;;18.40;98919.00;;;;5054693;28;20447;-64
2023/06/25 03:07:58;;;;;;;7.65;6.93;;;;;18.40;98916.00;;;;5070916;28;20524;-65
2023/06/25 03:10:28;;;;;;;7.38;6.68;;;;;18.30;98904.00;;;;5070913;28;20048;-65
2023/06/25 03:12:56;;;;;;;7.25;6.50;;;;;18.20;98905.00;;;;5070746;28;20048;-65
2023/06/25 03:15:23;;;;;;;7.88;7.07;;;;;18.10;98912.00;;;;5071923;28;20036;-66
2023/06/25 03:17:50;;;;;;;7.60;6.68;;;;;18.10;98909.00;;;;5074474;28;20139;-64
2023/06/25 03:20:18;;;;;;;8.35;6.85;;;;;18.20;98906.00;;;;5074454;28;20090;-65
2023/06/25 03:22:46;;;;;;;7.82;7.03;;;;;18.10;98904.00;;;;5074344;28;20102;-65
2023/06/25 03:25:12;;;;;;;8.75;7.20;;;;;18.10;98896.00;;;;5074677;28;20071;-65
2023/06/25 03:27:42;;;;;;;7.88;6.72;;;;;18.10;98899.00;;;;5074564;28;20141;-65
2023/06/25 03:30:09;;;;;;;7.90;6.90;;;;;18.10;98894.00;;;;5073709;28;20047;-65
2023/06/25 03:32:36;;;;;;;8.65;6.60;;;;;18.20;98896.00;;;;5073561;28;20047;-65
2023/06/25 03:35:04;;;;;;;7.60;6.70;;;;;18.30;98901.00;;;;5074565;28;20531;-65
2023/06/25 03:37:32;;;;;;;7.47;6.65;;;;;18.30;98902.00;;;;5074260;28;20135;-65
2023/06/25 03:39:58;;;;;;;7.65;6.85;;;;;18.40;98907.00;;;;5076043;28;20059;-65
2023/06/25 03:42:25;;;;;;;7.75;6.85;;;;;18.30;98901.00;;;;5077043;28;20044;-64
2023/06/25 03:44:54;;;;;;;8.15;6.93;;;;;18.30;98897.00;;;;5078646;28;20048;-64
2023/06/25 03:47:25;;;;;;;9.25;7.40;;;;;18.40;98893.00;;;;5080675;28;20459;-64
2023/06/25 03:49:51;;;;;;;9.38;6.88;;;;;18.30;98894.00;;;;5079468;28;20052;-65
2023/06/25 03:52:19;;;;;;;9.70;6.63;;;;;18.20;98890.00;;;;5074189;28;20044;-63
2023/06/25 03:54:45;;;;;;;7.75;6.60;;;;;18.10;98887.00;;;;5075209;28;20110;-64
2023/06/25 03:57:12;;;;;;;8.23;6.82;;;;;18.30;98893.00;;;;5074113;28;20072;-64
2023/06/25 03:59:38;;;;;;;8.60;6.65;;;;;18.40;98897.00;;;;5073492;28;20540;-62
2023/06/25 04:02:05;;;;;;;8.52;6.93;;;;;18.30;98898.00;;;;5074872;28;20036;-64
2023/06/25 04:04:33;;;;;;;6.82;6.03;;;;;18.30;98898.00;;;;5074025;28;20409;-62
2023/06/25 04:07:00;;;;;;;7.93;7.00;;;;;18.30;98893.00;;;;5073722;28;20078;-63
2023/06/25 04:09:27;;;;;;;7.50;6.75;;;;;18.30;98896.00;;;;5073217;28;20493;-63
2023/06/25 04:11:54;;;;;;;8.10;7.28;;;;;18.30;98891.00;;;;5073669;28;20047;-63
2023/06/25 04:14:21;;;;;;;7.68;6.80;;;;;18.30;98892.00;;;;5073356;28;20067;-63
2023/06/25 04:16:47;;;;;;;7.93;7.07;;;;;18.40;98889.00;;;;5074592;28;20129;-62
2023/06/25 04:19:14;;;;;;;8.30;7.38;;;;;18.50;98900.00;;;;5073135;28;20052;-63
2023/06/25 04:21:41;;;;;;;7.63;6.88;;;;;18.50;98891.00;;;;5073303;28;20505;-63
2023/06/25 04:24:08;;;;;;;8.25;6.95;;;;;18.50;98891.00;;;;5073183;28;20097;-63
2023/06/25 04:26:35;;;;;;;7.60;6.88;;;;;18.60;98879.00;;;;5074346;28;20043;-63
2023/06/25 04:29:02;;;;;;;7.68;6.90;;;;;18.80;98886.00;;;;5071950;28;20105;-63
2023/06/25 04:31:30;;;;;;;7.25;6.38;;;;;18.90;98891.00;;;;5073584;28;20567;-64
2023/06/25 04:33:57;;;;;;;7.13;6.47;;;;;19.00;98889.00;;;;5073223;28;20044;-63
2023/06/25 04:36:24;;;;;;;7.45;6.75;;;;;19.00;98895.00;;;;5073144;28;20398;-61
2023/06/25 04:38:55;;;;;;;7.65;6.95;;;;;19.10;98904.00;;;;5072558;28;20421;-62
2023/06/25 04:41:26;;;;;;;7.68;6.90;;;;;19.10;98892.00;;;;5073214;28;20136;-63
2023/06/25 04:43:53;;;;;;;7.38;6.47;;;;;19.20;98896.00;;;;5072934;28;20055;-63
2023/06/25 04:46:20;;;;;;;7.30;6.60;;;;;19.30;98891.00;;;;5073159;28;20048;-61
2023/06/25 04:48:47;;;;;;;8.63;6.72;;;;;19.40;98893.00;;;;5073243;28;20489;-63
2023/06/25 04:51:14;;;;;;;8.15;7.10;;;;;19.50;98893.00;;;;5074737;28;20070;-64
2023/06/25 04:53:40;;;;;;;7.63;6.82;;;;;19.60;98892.00;;;;5074237;28;20040;-63
2023/06/25 04:56:07;;;;;;;7.38;6.63;;;;;19.80;98891.00;;;;5074171;28;20044;-64
2023/06/25 04:58:35;;;;;;;7.45;6.72;;;;;19.80;98895.00;;;;5073034;28;20096;-64
2023/06/25 05:01:02;;;;;;;8.45;6.40;;;;;19.70;98901.00;;;;5074042;28;20106;-64
2023/06/25 05:03:29;;;;;;;7.60;6.90;;;;;19.70;98897.00;;;;5072856;28;20122;-64
2023/06/25 05:05:57;;;;;;;6.75;6.15;;;;;19.80;98902.00;;;;5074142;28;20040;-64
2023/06/25 05:08:24;;;;;;;8.13;7.07;;;;;19.90;98903.00;;;;5073716;28;20063;-64
2023/06/25 05:10:51;;;;;;;8.48;7.15;;;;;19.90;98897.00;;;;5073441;28;20455;-64
2023/06/25 05:13:18;;;;;;;8.65;7.00;;;;;19.90;98903.00;;;;5072517;28;20076;-64
2023/06/25 05:15:44;;;;;;;8.27;7.03;;;;;20.00;98905.00;;;;5072852;28;20045;-64
2023/06/25 05:18:11;;;;;;;8.98;7.03;;;;;20.10;98906.00;;;;5072125;28;20059;-64
2023/06/25 05:20:38;;;;;;;7.75;6.97;;;;;20.20;98914.00;;;;5071849;28;20143;-63
2023/06/25 05:23:06;;;;;;;8.32;6.60;;;;;20.40;98915.00;;;;5071782;28;20059;-64
2023/06/25 05:25:33;;;;;;;7.20;6.50;;;;;20.50;98902.00;;;;5072429;28;20048;-63
2023/06/25 05:28:01;;;;;;;8.55;7.00;;;;;20.50;98905.00;;;;5072023;28;20131;-64
2023/06/25 05:30:28;;;;;;;8.02;7.03;;;;;20.60;98908.00;;;;5072181;28;20094;-65
2023/06/25 05:32:58;;;;;;;7.20;6.20;;;;;20.70;98908.00;;;;5072292;28;20051;-64
2023/06/25 05:35:29;;;;;;;7.30;6.47;;;;;20.80;98904.00;;;;5072462;28;20485;-64
2023/06/25 05:37:56;;;;;;;7.30;6.43;;;;;20.90;98900.00;;;;5072815;28;20048;-64
2023/06/25 05:40:24;;;;;;;7.40;6.60;;;;;21.00;98898.00;;;;5073511;28;20438;-64
2023/06/25 05:42:50;;;;;;;7.15;6.45;;;;;21.10;98908.00;;;;5073972;28;20037;-64
2023/06/25 05:45:17;;;;;;;8.50;7.10;;;;;21.20;98906.00;;;;5074661;28;20098;-64
2023/06/25 05:47:44;;;;;;;14.52;11.35;;;;;21.10;98909.00;;;;5072574;28;20402;-64
2023/06/25 05:50:11;;;;;;;10.80;8.13;;;;;21.20;98906.00;;;;5072149;28;20082;-64
2023/06/25 05:52:38;;;;;;;7.57;6.78;;;;;21.40;98905.00;;;;5075237;28;20135;-64
2023/06/25 05:55:04;;;;;;;8.13;7.35;;;;;21.50;98913.00;;;;5073847;28;20577;-65
2023/06/25 05:57:31;;;;;;;7.72;6.93;;;;;21.60;98906.00;;;;5074534;28;20051;-63
2023/06/25 05:59:58;;;;;;;9.25;7.43;;;;;21.70;98908.00;;;;5073482;28;20045;-63
2023/06/25 06:02:24;;;;;;;10.88;6.85;;;;;21.80;98912.00;;;;5071688;28;20595;-62
2023/06/25 06:04:51;;;;;;;8.13;7.32;;;;;21.80;98911.00;;;;5073180;28;20044;-64
2023/06/25 06:07:18;;;;;;;11.85;7.25;;;;;21.80;98911.00;;;;5072085;28;20051;-63
2023/06/25 06:09:44;;;;;;;8.88;7.60;;;;;21.90;98904.00;;;;5073105;28;20059;-63
2023/06/25 06:12:11;;;;;;;7.60;6.80;;;;;22.00;98906.00;;;;5071988;28;20048;-63
2023/06/25 06:14:38;;;;;;;9.45;7.72;;;;;22.10;98903.00;;;;5073737;28;20057;-63
2023/06/25 06:17:05;;;;;;;9.20;8.00;;;;;22.20;98902.00;;;;5073350;28;20076;-63
2023/06/25 06:19:32;;;;;;;8.65;7.30;;;;;22.30;98904.00;;;;5072249;28;20143;-61
2023/06/25 06:21:58;;;;;;;9.98;6.65;;;;;22.40;98911.00;;;;5073239;28;20044;-62
2023/06/25 06:24:27;;;;;;;9.90;8.90;;;;;22.60;98902.00;;;;5075822;28;20048;-67
2023/06/25 06:26:54;;;;;;;12.20;8.95;;;;;22.70;98914.00;;;;5075901;28;20066;-60
2023/06/25 06:29:21;;;;;;;8.15;7.05;;;;;22.70;98902.00;;;;5075757;28;20055;-62
2023/06/25 06:31:47;;;;;;;7.50;6.78;;;;;22.80;98904.00;;;;5074044;28;20135;-61
2023/06/25 06:34:14;;;;;;;7.35;6.65;;;;;23.00;98901.00;;;;5074508;28;20052;-63
2023/06/25 06:36:40;;;;;;;7.93;7.13;;;;;23.20;98904.00;;;;5073826;28;20048;-61
2023/06/25 06:39:07;;;;;;;8.75;7.05;;;;;23.30;98905.00;;;;5075059;28;20458;-60
2023/06/25 06:41:34;;;;;;;7.82;6.50;;;;;23.40;98903.00;;;;5074489;28;20064;-61
2023/06/25 06:44:14;;;;;;;6.53;5.80;;;;;23.50;98908.00;;;;5074386;28;20492;-62
2023/06/25 06:46:41;;;;;;;6.60;5.88;;;;;23.60;98912.00;;;;5076075;28;20052;-62
2023/06/25 06:49:08;;;;;;;8.48;5.82;;;;;23.70;98913.00;;;;5077422;28;20044;-61
2023/06/25 06:51:36;;;;;;;7.10;6.40;;;;;23.80;98915.00;;;;5079094;28;20041;-60
2023/06/25 06:54:04;;;;;;;8.70;7.80;;;;;23.90;98917.00;;;;5080170;28;20128;-61
2023/06/25 06:56:31;;;;;;;7.88;6.88;;;;;24.10;98904.00;;;;5079948;28;20040;-62
2023/06/25 06:58:58;;;;;;;6.55;5.93;;;;;24.30;98913.00;;;;5080923;28;20091;-63
2023/06/25 07:01:25;;;;;;;7.32;5.47;;;;;24.40;98910.00;;;;5079314;28;20105;-62
2023/06/25 07:03:52;;;;;;;6.57;5.78;;;;;24.50;98902.00;;;;5081651;28;20094;-62
2023/06/25 07:06:20;;;;;;;9.38;7.93;;;;;24.50;98908.00;;;;5083054;28;20140;-62
2023/06/25 07:08:47;;;;;;;8.85;7.18;;;;;24.60;98897.00;;;;5082247;28;20052;-62
2023/06/25 07:11:16;;;;;;;8.45;6.13;;;;;24.70;98900.00;;;;5082177;28;20075;-61
2023/06/25 07:13:46;;;;;;;6.78;5.00;;;;;24.70;98901.00;;;;5081273;28;20040;-62
2023/06/25 07:16:13;;;;;;;5.88;5.18;;;;;24.80;98905.00;;;;5080647;28;20044;-62
2023/06/25 07:18:39;;;;;;;6.43;5.25;;;;;24.90;98900.00;;;;5080956;28;20097;-62
2023/06/25 07:21:06;;;;;;;5.40;4.90;;;;;25.00;98903.00;;;;5080463;28;20067;-63
2023/06/25 07:23:35;;;;;;;6.65;5.20;;;;;25.00;98907.00;;;;5080433;28;20044;-62
2023/06/25 07:26:02;;;;;;;8.18;5.82;;;;;25.20;98902.00;;;;5077798;28;20055;-59
2023/06/25 07:28:29;;;;;;;6.05;5.45;;;;;25.40;98906.00;;;;5077838;28;20051;-59
2023/06/25 07:30:55;;;;;;;7.65;5.32;;;;;25.50;98909.00;;;;5078204;28;20656;-60
2023/06/25 07:33:22;;;;;;;6.88;5.03;;;;;25.40;98902.00;;;;5077497;28;20469;-59
2023/06/25 07:35:48;;;;;;;5.85;4.80;;;;;25.50;98898.00;;;;5077330;28;20573;-60
2023/06/25 07:38:15;;;;;;;6.28;4.75;;;;;25.60;98900.00;;;;5077342;28;20048;-59
2023/06/25 07:40:42;;;;;;;5.90;5.30;;;;;25.80;98892.00;;;;5077344;28;20059;-61
2023/06/25 07:43:08;;;;;;;7.22;6.22;;;;;25.90;98893.00;;;;5077733;28;20131;-61
2023/06/25 07:45:35;;;;;;;4.95;4.47;;;;;26.00;98896.00;;;;5077920;28;20047;-61
2023/06/25 07:48:02;;;;;;;4.93;4.32;;;;;26.20;98901.00;;;;5077378;28;20044;-61
2023/06/25 07:50:29;;;;;;;6.03;4.93;;;;;26.30;98905.00;;;;5078222;28;20067;-60
2023/06/25 07:52:55;;;;;;;5.72;5.00;;;;;26.30;98890.00;;;;5077908;28;20040;-62
2023/06/25 07:55:22;;;;;;;7.38;4.57;;;;;26.30;98891.00;;;;5077374;28;20044;-60
2023/06/25 07:57:48;;;;;;;6.15;4.88;;;;;26.40;98889.00;;;;5080284;28;20105;-60
2023/06/25 08:00:15;;;;;;;5.03;3.95;;;;;26.50;98889.00;;;;5077962;28;20049;-61
2023/06/25 08:02:42;;;;;;;4.97;4.45;;;;;26.50;98898.00;;;;5076609;28;20049;-61
2023/06/25 08:05:09;;;;;;;4.82;4.25;;;;;26.70;98887.00;;;;5079620;28;20040;-58
2023/06/25 08:07:36;;;;;;;6.53;4.68;;;;;26.70;98886.00;;;;5077767;28;20060;-58
2023/06/25 08:10:02;;;;;;;5.03;4.53;;;;;26.70;98883.00;;;;5076355;28;20041;-59
2023/06/25 08:12:29;;;;;;;5.65;5.07;;;;;26.90;98886.00;;;;5075468;28;20041;-58
2023/06/25 08:14:56;;;;;;;3.80;3.40;;;;;27.00;98883.00;;;;5057451;28;20044;-59
2023/06/25 08:17:22;;;;;;;5.90;3.80;;;;;27.00;98887.00;;;;5075203;28;20504;-62
2023/06/25 08:19:49;;;;;;;6.18;5.43;;;;;27.10;98879.00;;;;5075157;28;20049;-59
2023/06/25 08:22:16;;;;;;;5.57;3.83;;;;;27.30;98885.00;;;;5074975;28;20556;-60
2023/06/25 08:24:42;;;;;;;4.00;3.60;;;;;27.40;98884.00;;;;5075049;28;20047;-62
2023/06/25 08:27:09;;;;;;;4.50;3.95;;;;;27.40;98884.00;;;;5075229;28;20129;-61
2023/06/25 08:29:35;;;;;;;4.22;3.70;;;;;27.40;98887.00;;;;5075186;28;20464;-60
2023/06/25 08:32:02;;;;;;;4.40;3.95;;;;;27.60;98886.00;;;;5074944;28;20237;-62
2023/06/25 08:34:29;;;;;;;4.97;4.47;;;;;27.80;98893.00;;;;5074641;28;20048;-61
2023/06/25 08:36:55;;;;;;;7.55;4.20;;;;;27.90;98886.00;;;;5074198;28;20401;-61
2023/06/25 08:39:22;;;;;;;4.40;4.00;;;;;28.00;98895.00;;;;5074556;28;20052;-62
2023/06/25 08:41:49;;;;;;;5.18;4.40;;;;;28.00;98889.00;;;;5073547;28;20462;-62
2023/06/25 08:44:16;;;;;;;4.75;4.05;;;;;28.10;98885.00;;;;5074409;28;20520;-60
2023/06/25 08:46:49;;;;;;;4.32;3.90;;;;;28.10;98889.00;;;;5074343;28;20047;-65
2023/06/25 08:49:16;;;;;;;4.28;3.70;;;;;28.20;98885.00;;;;5073848;28;20465;-62
2023/06/25 08:51:43;;;;;;;4.72;3.67;;;;;28.20;98885.00;;;;5074068;28;20068;-63
2023/06/25 08:56:17;;;;;;;7.97;4.38;;;;;28.50;98882.00;;;;5069947;28;20441;-64
2023/06/25 08:58:44;;;;;;;5.65;4.25;;;;;28.50;98880.00;;;;5069488;28;20516;-64
2023/06/25 09:01:12;;;;;;;4.05;3.65;;;;;28.70;98880.00;;;;5069538;28;20048;-63
2023/06/25 09:03:42;;;;;;;5.45;3.80;;;;;28.70;98875.00;;;;5069445;28;20044;-63
2023/06/25 09:06:14;;;;;;;4.95;3.55;;;;;28.70;98871.00;;;;5069491;28;20558;-62
2023/06/25 09:08:42;;;;;;;3.60;3.30;;;;;28.60;98869.00;;;;5069756;28;20095;-60
2023/06/25 09:11:09;;;;;;;4.43;4.03;;;;;28.60;98869.00;;;;5069678;28;20123;-60
2023/06/25 09:13:38;;;;;;;8.05;4.18;;;;;28.60;98869.00;;;;5069674;28;20102;-67
2023/06/25 09:16:07;;;;;;;3.60;3.30;;;;;28.80;98865.00;;;;5068025;28;20052;-65
2023/06/25 09:18:34;;;;;;;3.92;3.30;;;;;28.80;98868.00;;;;5051388;28;20045;-65
2023/06/25 09:21:06;;;;;;;3.88;3.33;;;;;28.80;98861.00;;;;5069378;28;20052;-65
2023/06/25 09:23:32;;;;;;;6.07;3.78;;;;;29.00;98858.00;;;;5069271;28;20040;-65
2023/06/25 09:26:05;;;;;;;4.35;3.67;;;;;28.90;98864.00;;;;5069649;28;20132;-65
2023/06/25 09:28:32;;;;;;;6.00;4.13;;;;;28.90;98860.00;;;;5069625;28;20045;-66
2023/06/25 09:31:00;;;;;;;5.47;3.58;;;;;28.90;98854.00;;;;5069306;28;20049;-65
2023/06/25 09:33:34;;;;;;;5.05;3.78;;;;;29.00;98848.00;;;;5069378;28;20047;-67
2023/06/25 09:36:03;;;;;;;5.07;4.00;;;;;29.10;98843.00;;;;5067998;28;20070;-67
2023/06/25 09:38:45;;;;;;;3.95;3.60;;;;;29.30;98851.00;;;;5067740;28;20098;-68
2023/06/25 09:41:15;;;;;;;7.20;4.25;;;;;29.50;98843.00;;;;5068806;28;20387;-67
2023/06/25 09:43:43;;;;;;;3.90;3.47;;;;;29.60;98849.00;;;;5069215;28;20503;-66
2023/06/25 09:46:11;;;;;;;5.00;4.13;;;;;29.60;98844.00;;;;5067971;28;20037;-66
2023/06/25 09:48:41;;;;;;;4.70;4.22;;;;;29.70;98840.00;;;;5067662;28;20555;-66
2023/06/25 09:51:11;;;;;;;5.30;4.15;;;;;29.80;98838.00;;;;5068409;28;20052;-67
2023/06/25 09:53:39;;;;;;;4.75;4.20;;;;;29.90;98829.00;;;;5068640;28;20566;-66
2023/06/25 09:56:08;;;;;;;4.68;4.18;;;;;29.90;98831.00;;;;5068282;28;20037;-67
2023/06/25 09:58:35;;;;;;;4.68;4.28;;;;;29.90;98827.00;;;;5067295;28;20068;-68
2023/06/25 10:01:02;;;;;;;5.85;4.10;;;;;30.10;98840.00;;;;5067043;28;20128;-67
2023/06/25 10:03:29;;;;;;;4.30;3.90;;;;;30.00;98833.00;;;;5068466;28;20557;-67
2023/06/25 10:05:56;;;;;;;6.65;4.55;;;;;29.90;98826.00;;;;5063077;28;20095;-66
2023/06/25 10:08:23;;;;;;;3.75;3.45;;;;;29.90;98830.00;;;;5054593;28;20049;-66
2023/06/25 10:11:00;;;;;;;4.97;4.47;;;;;29.90;98826.00;;;;5037221;28;20045;-68
2023/06/25 10:13:27;;;;;;;5.13;3.90;;;;;29.90;98827.00;;;;5054831;28;20048;-65
2023/06/25 10:15:59;;;;;;;4.90;3.65;;;;;29.90;98826.00;;;;5054641;28;20071;-67
2023/06/25 10:18:26;;;;;;;5.97;4.35;;;;;29.90;98827.00;;;;5055137;28;20041;-65
2023/06/25 10:20:58;;;;;;;4.88;4.10;;;;;30.10;98828.00;;;;5055145;28;20044;-65
2023/06/25 10:23:26;;;;;;;4.20;3.80;;;;;30.00;98824.00;;;;5055597;28;20334;-65
2023/06/25 10:25:59;;;;;;;4.10;3.70;;;;;29.90;98814.00;;;;5054828;28;20041;-66
2023/06/25 10:28:34;;;;;;;4.93;4.03;;;;;29.90;98815.00;;;;5055663;28;20103;-66
2023/06/25 10:31:14;;;;;;;4.45;3.85;;;;;29.80;98815.00;;;;5055994;28;20553;-67
2023/06/25 10:33:42;;;;;;;4.63;4.07;;;;;29.90;98809.00;;;;5056063;28;20048;-68
2023/06/25 10:36:10;;;;;;;4.47;4.07;;;;;30.00;98811.00;;;;5055011;28;20487;-69
2023/06/25 10:38:37;;;;;;;4.45;4.05;;;;;30.10;98810.00;;;;5053428;28;20084;-68
2023/06/25 10:41:04;;;;;;;4.35;3.95;;;;;30.00;98808.00;;;;5054398;28;20049;-66
2023/06/25 10:43:31;;;;;;;3.92;3.55;;;;;29.90;98802.00;;;;5054304;28;20049;-67
2023/06/25 10:45:58;;;;;;;4.00;3.70;;;;;29.90;98798.00;;;;5054257;28;20073;-66
2023/06/25 10:48:25;;;;;;;4.82;3.75;;;;;30.00;98804.00;;;;5053220;28;20141;-65
2023/06/25 10:50:52;;;;;;;5.00;4.15;;;;;30.10;98804.00;;;;5054288;28;20041;-66
2023/06/25 10:53:21;;;;;;;4.85;4.00;;;;;30.00;98786.00;;;;5054241;28;20083;-64
2023/06/25 10:55:49;;;;;;;4.45;3.90;;;;;30.10;98804.00;;;;5054124;28;20055;-64
2023/06/25 10:58:17;;;;;;;5.32;4.60;;;;;30.10;98797.00;;;;5052878;28;20124;-71
2023/06/25 11:00:45;;;;;;;4.90;4.40;;;;;30.20;98799.00;;;;5054526;28;20080;-71
2023/06/25 11:03:12;;;;;;;4.65;3.75;;;;;30.20;98796.00;;;;5054068;28;20048;-66
2023/06/25 11:05:43;;;;;;;4.50;4.10;;;;;30.10;98785.00;;;;5052695;28;20468;-67
2023/06/25 11:08:12;;;;;;;4.97;4.50;;;;;30.10;98785.00;;;;5053731;28;20090;-65
2023/06/25 11:10:41;;;;;;;4.30;3.90;;;;;30.10;98788.00;;;;5053615;28;20040;-65
2023/06/25 11:13:13;;;;;;;7.13;4.68;;;;;30.20;98784.00;;;;5053793;28;20510;-67
2023/06/25 11:15:40;;;;;;;5.53;4.97;;;;;30.30;98780.00;;;;5053075;28;20390;-66
2023/06/25 11:18:08;;;;;;;4.88;4.40;;;;;30.30;98779.00;;;;5052758;28;20079;-65
2023/06/25 11:20:38;;;;;;;4.40;4.00;;;;;30.20;98775.00;;;;5053955;28;20040;-66
2023/06/25 11:23:05;;;;;;;5.10;4.07;;;;;30.40;98779.00;;;;5053151;28;20047;-65
2023/06/25 11:25:32;;;;;;;5.10;4.55;;;;;30.30;98773.00;;;;5052489;28;20041;-66
2023/06/25 11:28:04;;;;;;;5.18;4.20;;;;;30.20;98769.00;;;;5054012;28;20041;-63
2023/06/25 11:30:31;;;;;;;5.18;4.68;;;;;30.10;98766.00;;;;5052353;28;20041;-67
2023/06/25 11:33:10;;;;;;;4.82;4.40;;;;;30.20;98766.00;;;;5053430;28;20107;-66
2023/06/25 11:35:37;;;;;;;5.13;4.63;;;;;30.40;98756.00;;;;5053162;28;20044;-64
2023/06/25 11:38:05;;;;;;;5.40;4.90;;;;;30.40;98758.00;;;;5051992;28;20053;-67
2023/06/25 11:40:33;;;;;;;5.03;4.53;;;;;30.40;98754.00;;;;5053220;28;20049;-66
2023/06/25 11:43:01;;;;;;;5.50;4.63;;;;;30.40;98755.00;;;;5052375;28;20045;-67
2023/06/25 11:45:39;;;;;;;5.95;5.10;;;;;30.40;98755.00;;;;5051836;28;20056;-65
2023/06/25 11:48:12;;;;;;;10.60;8.77;;;;;30.60;98749.00;;;;5053261;28;20048;-66
2023/06/25 11:50:39;;;;;;;9.52;5.25;;;;;30.90;98747.00;;;;5054755;28;20163;-65
2023/06/25 11:53:06;;;;;;;6.63;5.05;;;;;31.10;98747.00;;;;5054878;28;20096;-65
2023/06/25 11:55:32;;;;;;;8.07;5.50;;;;;31.10;98742.00;;;;5053893;28;20049;-66
2023/06/25 11:57:59;;;;;;;5.18;4.68;;;;;31.00;98746.00;;;;5052839;28;20466;-66
2023/06/25 12:00:25;;;;;;;5.63;4.82;;;;;30.90;98741.00;;;;5052752;28;20043;-66
2023/06/25 12:02:52;;;;;;;5.15;4.22;;;;;30.80;98736.00;;;;5051722;28;20494;-67
2023/06/25 12:05:20;;;;;;;5.57;4.60;;;;;30.90;98732.00;;;;5052734;28;20098;-66
2023/06/25 12:07:46;;;;;;;5.45;4.72;;;;;31.20;98739.00;;;;5051852;28;20100;-68
2023/06/25 12:10:13;;;;;;;4.88;4.43;;;;;31.30;98737.00;;;;5053746;28;20127;-68
2023/06/25 12:12:40;;;;;;;5.70;4.47;;;;;31.20;98739.00;;;;5052523;28;20123;-68
2023/06/25 12:15:06;;;;;;;5.63;5.13;;;;;31.00;98733.00;;;;5054004;28;20140;-68
2023/06/25 12:17:33;;;;;;;5.80;4.50;;;;;31.20;98727.00;;;;5073636;28;20044;-69
2023/06/25 12:19:59;;;;;;;4.63;4.22;;;;;31.10;98720.00;;;;5073071;28;20029;-67
2023/06/25 12:22:26;;;;;;;5.55;4.93;;;;;31.10;98718.00;;;;5057813;28;20052;-68